Skip Navigation LinksHome page > Tools > METAR decoder Skip Navigation Links

METAR decoder

Settings

METAR

Chicago O'Hare Intl, Chicago

For information only: do not use for flight planning or navigation.
Latest weather
Observation time Wednesday, October 16, 2019 11:51 PM CDT
Local time Thursday, October 17, 2019 12:56 AM CDT
Flight conditions Visual Meteorological Conditions
Winds
Wind direction West (280°)
Wind speed 7 mph
Visibility 10 mi.
Sky condition
Ceiling 25,000 ft. broken clouds
Cloud layer few clouds 4,800 ft.
Cloud layer scattered clouds 22,000 ft.
Cloud layer broken clouds 25,000 ft.
Temperature 42°F
Dewpoint 35°F
Altimeter 30.01 in.Hg
Derived measurements
Relative humidity 76%
Wind chill 38°F
Density altitude -465 ft.
Sea-level pressure 30.02 in.Hg
Remarks
Automated weather observing station with precipitation discriminator.
METAR KORD 170451Z 28006KT 10SM FEW048 SCT220 BKN250 06/02 A3001 RMK AO2 SLP165 T00560017

InnerDrive.Weather 4.0.6770.0 Release CLR 4.0.30319.42000
Copyright ©2018 Inner Drive Technology. All rights reserved. Portions Copyright ©1986-2018 David Braverman.

Find weather

Site navigation


Skip Navigation Links

Place info

Page info

PayPal - The safer, easier way to pay online!

Return home.

Copyright ©2019 Inner Drive Technology. Purveyors of fine, hand-crafted computer software. Page printed 2019-10-17T05:56:07 UTC.